sensor_id;sensor_type;location;lat;lon;timestamp;P1;durP1;ratioP1;P2;durP2;ratioP2
55609;SDS011;41486;52.502;13.486;2023-05-07T00:00:03;10.77;;;6.65;;
55609;SDS011;41486;52.502;13.486;2023-05-07T00:02:34;8.32;;;5.15;;
55609;SDS011;41486;52.502;13.486;2023-05-07T00:05:05;7.70;;;5.47;;
55609;SDS011;41486;52.502;13.486;2023-05-07T00:07:35;5.88;;;5.10;;
55609;SDS011;41486;52.502;13.486;2023-05-07T00:10:04;8.30;;;5.90;;
55609;SDS011;41486;52.502;13.486;2023-05-07T00:12:33;8.13;;;5.55;;
55609;SDS011;41486;52.502;13.486;2023-05-07T00:15:01;6.72;;;4.82;;
55609;SDS011;41486;52.502;13.486;2023-05-07T00:17:30;8.68;;;4.75;;
55609;SDS011;41486;52.502;13.486;2023-05-07T00:19:58;6.55;;;4.88;;
55609;SDS011;41486;52.502;13.486;2023-05-07T00:22:28;9.15;;;6.10;;
55609;SDS011;41486;52.502;13.486;2023-05-07T00:24:56;7.70;;;4.53;;
55609;SDS011;41486;52.502;13.486;2023-05-07T00:27:24;6.80;;;4.97;;
55609;SDS011;41486;52.502;13.486;2023-05-07T00:29:52;6.95;;;5.10;;
55609;SDS011;41486;52.502;13.486;2023-05-07T00:32:20;7.10;;;4.82;;
55609;SDS011;41486;52.502;13.486;2023-05-07T00:34:48;7.05;;;4.78;;
55609;SDS011;41486;52.502;13.486;2023-05-07T00:37:17;7.40;;;5.10;;
55609;SDS011;41486;52.502;13.486;2023-05-07T00:39:46;7.72;;;5.65;;
55609;SDS011;41486;52.502;13.486;2023-05-07T00:42:14;5.75;;;4.38;;
55609;SDS011;41486;52.502;13.486;2023-05-07T00:44:42;5.75;;;4.57;;
55609;SDS011;41486;52.502;13.486;2023-05-07T00:47:10;7.00;;;4.80;;
55609;SDS011;41486;52.502;13.486;2023-05-07T00:49:39;6.75;;;5.18;;
55609;SDS011;41486;52.502;13.486;2023-05-07T00:52:11;8.90;;;5.57;;
55609;SDS011;41486;52.502;13.486;2023-05-07T00:54:41;6.32;;;4.30;;
55609;SDS011;41486;52.502;13.486;2023-05-07T00:57:11;8.63;;;5.28;;
55609;SDS011;41486;52.502;13.486;2023-05-07T00:59:39;7.63;;;5.05;;
55609;SDS011;41486;52.502;13.486;2023-05-07T01:02:07;6.40;;;4.53;;
55609;SDS011;41486;52.502;13.486;2023-05-07T01:04:35;6.68;;;5.05;;
55609;SDS011;41486;52.502;13.486;2023-05-07T01:07:04;6.85;;;5.32;;
55609;SDS011;41486;52.502;13.486;2023-05-07T01:09:32;8.88;;;5.22;;
55609;SDS011;41486;52.502;13.486;2023-05-07T01:12:02;7.30;;;4.93;;
55609;SDS011;41486;52.502;13.486;2023-05-07T01:14:33;7.20;;;4.60;;
55609;SDS011;41486;52.502;13.486;2023-05-07T01:17:02;9.52;;;5.40;;
55609;SDS011;41486;52.502;13.486;2023-05-07T01:19:30;8.38;;;5.28;;
55609;SDS011;41486;52.502;13.486;2023-05-07T01:22:01;6.68;;;4.88;;
55609;SDS011;41486;52.502;13.486;2023-05-07T01:24:39;7.60;;;5.47;;
55609;SDS011;41486;52.502;13.486;2023-05-07T01:27:07;6.20;;;4.93;;
55609;SDS011;41486;52.502;13.486;2023-05-07T01:29:37;8.68;;;5.30;;
55609;SDS011;41486;52.502;13.486;2023-05-07T01:32:05;6.05;;;4.78;;
55609;SDS011;41486;52.502;13.486;2023-05-07T01:34:33;6.18;;;4.43;;
55609;SDS011;41486;52.502;13.486;2023-05-07T01:37:04;8.15;;;5.10;;
55609;SDS011;41486;52.502;13.486;2023-05-07T01:39:32;6.80;;;4.90;;
55609;SDS011;41486;52.502;13.486;2023-05-07T01:42:02;7.38;;;4.53;;
55609;SDS011;41486;52.502;13.486;2023-05-07T01:44:30;5.45;;;4.30;;
55609;SDS011;41486;52.502;13.486;2023-05-07T01:46:58;7.35;;;4.50;;
55609;SDS011;41486;52.502;13.486;2023-05-07T01:49:26;6.75;;;4.10;;
55609;SDS011;41486;52.502;13.486;2023-05-07T01:51:55;7.25;;;4.50;;
55609;SDS011;41486;52.502;13.486;2023-05-07T01:54:26;6.28;;;4.45;;
55609;SDS011;41486;52.502;13.486;2023-05-07T01:56:56;6.30;;;4.55;;
55609;SDS011;41486;52.502;13.486;2023-05-07T01:59:26;6.70;;;4.80;;
55609;SDS011;41486;52.502;13.486;2023-05-07T02:01:54;7.30;;;4.90;;
55609;SDS011;41486;52.502;13.486;2023-05-07T02:04:22;6.00;;;4.13;;
55609;SDS011;41486;52.502;13.486;2023-05-07T02:06:52;7.57;;;5.15;;
55609;SDS011;41486;52.502;13.486;2023-05-07T02:09:20;11.10;;;4.78;;
55609;SDS011;41486;52.502;13.486;2023-05-07T02:11:50;7.43;;;4.55;;
55609;SDS011;41486;52.502;13.486;2023-05-07T02:14:19;7.03;;;4.20;;
55609;SDS011;41486;52.502;13.486;2023-05-07T02:16:49;8.40;;;4.10;;
55609;SDS011;41486;52.502;13.486;2023-05-07T02:19:17;7.75;;;4.55;;
55609;SDS011;41486;52.502;13.486;2023-05-07T02:21:47;14.98;;;7.25;;
55609;SDS011;41486;52.502;13.486;2023-05-07T02:24:16;8.77;;;4.80;;
55609;SDS011;41486;52.502;13.486;2023-05-07T02:26:44;6.50;;;4.78;;
55609;SDS011;41486;52.502;13.486;2023-05-07T02:29:11;5.95;;;4.80;;
55609;SDS011;41486;52.502;13.486;2023-05-07T02:31:39;5.95;;;4.18;;
55609;SDS011;41486;52.502;13.486;2023-05-07T02:34:09;8.15;;;5.13;;
55609;SDS011;41486;52.502;13.486;2023-05-07T02:36:37;5.57;;;4.05;;
55609;SDS011;41486;52.502;13.486;2023-05-07T02:39:09;8.48;;;5.30;;
55609;SDS011;41486;52.502;13.486;2023-05-07T02:41:38;6.15;;;4.78;;
55609;SDS011;41486;52.502;13.486;2023-05-07T02:44:06;6.38;;;4.70;;
55609;SDS011;41486;52.502;13.486;2023-05-07T02:46:34;7.53;;;4.10;;
55609;SDS011;41486;52.502;13.486;2023-05-07T02:49:08;6.68;;;4.75;;
55609;SDS011;41486;52.502;13.486;2023-05-07T02:51:36;7.45;;;4.70;;
55609;SDS011;41486;52.502;13.486;2023-05-07T02:54:09;7.28;;;5.07;;
55609;SDS011;41486;52.502;13.486;2023-05-07T02:56:37;10.13;;;5.07;;
55609;SDS011;41486;52.502;13.486;2023-05-07T02:59:05;5.97;;;4.90;;
55609;SDS011;41486;52.502;13.486;2023-05-07T03:01:37;9.30;;;5.10;;
55609;SDS011;41486;52.502;13.486;2023-05-07T03:04:08;7.22;;;4.60;;
55609;SDS011;41486;52.502;13.486;2023-05-07T03:06:37;5.22;;;3.67;;
55609;SDS011;41486;52.502;13.486;2023-05-07T03:09:05;8.10;;;3.95;;
55609;SDS011;41486;52.502;13.486;2023-05-07T03:11:33;11.75;;;4.05;;
55609;SDS011;41486;52.502;13.486;2023-05-07T03:14:01;5.75;;;4.50;;
55609;SDS011;41486;52.502;13.486;2023-05-07T03:16:30;6.70;;;4.40;;
55609;SDS011;41486;52.502;13.486;2023-05-07T03:18:58;8.25;;;5.10;;
55609;SDS011;41486;52.502;13.486;2023-05-07T03:21:30;8.00;;;4.47;;
55609;SDS011;41486;52.502;13.486;2023-05-07T03:24:00;5.72;;;4.45;;
55609;SDS011;41486;52.502;13.486;2023-05-07T03:26:28;7.72;;;4.53;;
55609;SDS011;41486;52.502;13.486;2023-05-07T03:28:56;7.50;;;4.25;;
55609;SDS011;41486;52.502;13.486;2023-05-07T03:31:24;6.78;;;4.38;;
55609;SDS011;41486;52.502;13.486;2023-05-07T03:33:52;10.18;;;5.13;;
55609;SDS011;41486;52.502;13.486;2023-05-07T03:36:21;6.75;;;4.82;;
55609;SDS011;41486;52.502;13.486;2023-05-07T03:38:51;8.18;;;5.13;;
55609;SDS011;41486;52.502;13.486;2023-05-07T03:41:23;11.27;;;5.22;;
55609;SDS011;41486;52.502;13.486;2023-05-07T03:43:52;8.68;;;4.97;;
55609;SDS011;41486;52.502;13.486;2023-05-07T03:46:20;6.95;;;4.78;;
55609;SDS011;41486;52.502;13.486;2023-05-07T03:48:49;8.00;;;4.97;;
55609;SDS011;41486;52.502;13.486;2023-05-07T03:51:18;6.53;;;4.60;;
55609;SDS011;41486;52.502;13.486;2023-05-07T03:53:47;7.38;;;4.88;;
55609;SDS011;41486;52.502;13.486;2023-05-07T03:56:16;7.47;;;4.05;;
55609;SDS011;41486;52.502;13.486;2023-05-07T03:58:46;6.07;;;4.50;;
55609;SDS011;41486;52.502;13.486;2023-05-07T04:01:15;5.95;;;4.45;;
55609;SDS011;41486;52.502;13.486;2023-05-07T04:03:43;6.60;;;4.68;;
55609;SDS011;41486;52.502;13.486;2023-05-07T04:06:12;7.75;;;4.22;;
55609;SDS011;41486;52.502;13.486;2023-05-07T04:08:43;5.15;;;4.22;;
55609;SDS011;41486;52.502;13.486;2023-05-07T04:11:12;6.93;;;4.65;;
55609;SDS011;41486;52.502;13.486;2023-05-07T04:13:42;9.05;;;4.38;;
55609;SDS011;41486;52.502;13.486;2023-05-07T04:16:10;6.03;;;3.88;;
55609;SDS011;41486;52.502;13.486;2023-05-07T04:18:38;5.43;;;4.38;;
55609;SDS011;41486;52.502;13.486;2023-05-07T04:21:06;8.00;;;4.35;;
55609;SDS011;41486;52.502;13.486;2023-05-07T04:23:41;6.68;;;3.67;;
55609;SDS011;41486;52.502;13.486;2023-05-07T04:26:11;6.07;;;4.60;;
55609;SDS011;41486;52.502;13.486;2023-05-07T04:28:43;6.32;;;3.78;;
55609;SDS011;41486;52.502;13.486;2023-05-07T04:31:11;5.25;;;3.83;;
55609;SDS011;41486;52.502;13.486;2023-05-07T04:33:39;5.53;;;3.70;;
55609;SDS011;41486;52.502;13.486;2023-05-07T04:36:11;7.75;;;4.75;;
55609;SDS011;41486;52.502;13.486;2023-05-07T04:38:46;7.93;;;4.03;;
55609;SDS011;41486;52.502;13.486;2023-05-07T04:41:17;8.45;;;3.88;;
55609;SDS011;41486;52.502;13.486;2023-05-07T04:43:46;5.88;;;3.40;;
55609;SDS011;41486;52.502;13.486;2023-05-07T04:46:15;6.70;;;4.03;;
55609;SDS011;41486;52.502;13.486;2023-05-07T04:48:44;5.55;;;3.58;;
55609;SDS011;41486;52.502;13.486;2023-05-07T04:51:12;7.03;;;3.90;;
55609;SDS011;41486;52.502;13.486;2023-05-07T04:53:40;4.93;;;4.03;;
55609;SDS011;41486;52.502;13.486;2023-05-07T04:56:09;5.50;;;3.53;;
55609;SDS011;41486;52.502;13.486;2023-05-07T04:58:40;4.72;;;3.65;;
55609;SDS011;41486;52.502;13.486;2023-05-07T05:01:10;5.18;;;3.20;;
55609;SDS011;41486;52.502;13.486;2023-05-07T05:03:39;4.65;;;3.22;;
55609;SDS011;41486;52.502;13.486;2023-05-07T05:06:08;5.45;;;3.58;;
55609;SDS011;41486;52.502;13.486;2023-05-07T05:08:36;4.32;;;2.92;;
55609;SDS011;41486;52.502;13.486;2023-05-07T05:11:04;4.25;;;2.90;;
55609;SDS011;41486;52.502;13.486;2023-05-07T05:13:34;6.05;;;3.72;;
55609;SDS011;41486;52.502;13.486;2023-05-07T05:16:10;5.53;;;3.22;;
55609;SDS011;41486;52.502;13.486;2023-05-07T05:18:39;8.82;;;3.88;;
55609;SDS011;41486;52.502;13.486;2023-05-07T05:21:09;5.22;;;3.53;;
55609;SDS011;41486;52.502;13.486;2023-05-07T05:23:37;4.88;;;3.53;;
55609;SDS011;41486;52.502;13.486;2023-05-07T05:26:05;6.40;;;3.42;;
55609;SDS011;41486;52.502;13.486;2023-05-07T05:28:33;4.57;;;2.92;;
55609;SDS011;41486;52.502;13.486;2023-05-07T05:31:02;4.57;;;3.45;;
55609;SDS011;41486;52.502;13.486;2023-05-07T05:33:35;4.53;;;3.42;;
55609;SDS011;41486;52.502;13.486;2023-05-07T05:36:04;4.55;;;2.95;;
55609;SDS011;41486;52.502;13.486;2023-05-07T05:38:34;5.93;;;3.75;;
55609;SDS011;41486;52.502;13.486;2023-05-07T05:41:02;6.35;;;4.10;;
55609;SDS011;41486;52.502;13.486;2023-05-07T05:43:30;6.18;;;3.95;;
55609;SDS011;41486;52.502;13.486;2023-05-07T05:45:58;5.07;;;3.05;;
55609;SDS011;41486;52.502;13.486;2023-05-07T05:48:28;5.35;;;3.42;;
55609;SDS011;41486;52.502;13.486;2023-05-07T05:50:59;6.57;;;3.95;;
55609;SDS011;41486;52.502;13.486;2023-05-07T05:53:27;6.05;;;4.35;;
55609;SDS011;41486;52.502;13.486;2023-05-07T05:55:56;4.97;;;3.25;;
55609;SDS011;41486;52.502;13.486;2023-05-07T05:58:24;4.72;;;3.35;;
55609;SDS011;41486;52.502;13.486;2023-05-07T06:00:57;3.58;;;3.03;;
55609;SDS011;41486;52.502;13.486;2023-05-07T06:03:27;7.43;;;3.92;;
55609;SDS011;41486;52.502;13.486;2023-05-07T06:05:59;7.07;;;3.67;;
55609;SDS011;41486;52.502;13.486;2023-05-07T06:08:29;6.53;;;3.42;;
55609;SDS011;41486;52.502;13.486;2023-05-07T06:10:58;7.03;;;3.90;;
55609;SDS011;41486;52.502;13.486;2023-05-07T06:13:27;4.68;;;3.00;;
55609;SDS011;41486;52.502;13.486;2023-05-07T06:15:55;6.97;;;3.97;;
55609;SDS011;41486;52.502;13.486;2023-05-07T06:18:23;4.85;;;3.30;;
55609;SDS011;41486;52.502;13.486;2023-05-07T06:20:51;5.35;;;3.83;;
55609;SDS011;41486;52.502;13.486;2023-05-07T06:23:25;4.93;;;3.15;;
55609;SDS011;41486;52.502;13.486;2023-05-07T06:25:53;4.65;;;3.53;;
55609;SDS011;41486;52.502;13.486;2023-05-07T06:28:26;4.53;;;3.15;;
55609;SDS011;41486;52.502;13.486;2023-05-07T06:31:10;4.80;;;3.63;;
55609;SDS011;41486;52.502;13.486;2023-05-07T06:33:39;4.95;;;3.03;;
55609;SDS011;41486;52.502;13.486;2023-05-07T06:36:07;5.20;;;3.40;;
55609;SDS011;41486;52.502;13.486;2023-05-07T06:38:39;5.22;;;3.50;;
55609;SDS011;41486;52.502;13.486;2023-05-07T06:41:07;4.45;;;3.22;;
55609;SDS011;41486;52.502;13.486;2023-05-07T06:43:37;5.32;;;3.53;;
55609;SDS011;41486;52.502;13.486;2023-05-07T06:46:30;6.22;;;3.22;;
55609;SDS011;41486;52.502;13.486;2023-05-07T06:48:58;4.53;;;3.13;;
55609;SDS011;41486;52.502;13.486;2023-05-07T06:51:27;4.82;;;3.08;;
55609;SDS011;41486;52.502;13.486;2023-05-07T06:53:58;3.95;;;3.13;;
55609;SDS011;41486;52.502;13.486;2023-05-07T06:56:26;5.22;;;3.08;;
55609;SDS011;41486;52.502;13.486;2023-05-07T06:58:54;6.15;;;3.17;;
55609;SDS011;41486;52.502;13.486;2023-05-07T07:01:22;4.13;;;3.15;;
55609;SDS011;41486;52.502;13.486;2023-05-07T07:03:51;3.97;;;2.85;;
55609;SDS011;41486;52.502;13.486;2023-05-07T07:06:20;4.20;;;2.92;;
55609;SDS011;41486;52.502;13.486;2023-05-07T07:08:48;3.80;;;2.83;;
55609;SDS011;41486;52.502;13.486;2023-05-07T07:11:18;4.43;;;2.70;;
55609;SDS011;41486;52.502;13.486;2023-05-07T07:13:47;6.47;;;3.13;;
55609;SDS011;41486;52.502;13.486;2023-05-07T07:16:15;4.15;;;2.90;;
55609;SDS011;41486;52.502;13.486;2023-05-07T07:18:45;4.15;;;2.90;;
55609;SDS011;41486;52.502;13.486;2023-05-07T07:21:13;4.03;;;2.90;;
55609;SDS011;41486;52.502;13.486;2023-05-07T07:23:41;4.20;;;2.50;;
55609;SDS011;41486;52.502;13.486;2023-05-07T07:26:10;2.85;;;2.42;;
55609;SDS011;41486;52.502;13.486;2023-05-07T07:28:43;8.65;;;3.22;;
55609;SDS011;41486;52.502;13.486;2023-05-07T07:31:15;14.80;;;7.60;;
55609;SDS011;41486;52.502;13.486;2023-05-07T07:33:43;2.88;;;2.50;;
55609;SDS011;41486;52.502;13.486;2023-05-07T07:36:11;4.68;;;2.63;;
55609;SDS011;41486;52.502;13.486;2023-05-07T07:38:40;5.28;;;2.30;;
55609;SDS011;41486;52.502;13.486;2023-05-07T07:41:08;4.43;;;2.47;;
55609;SDS011;41486;52.502;13.486;2023-05-07T07:43:36;2.35;;;1.90;;
55609;SDS011;41486;52.502;13.486;2023-05-07T07:46:05;5.53;;;2.42;;
55609;SDS011;41486;52.502;13.486;2023-05-07T07:48:34;2.70;;;2.00;;
55609;SDS011;41486;52.502;13.486;2023-05-07T07:51:02;5.28;;;2.15;;
55609;SDS011;41486;52.502;13.486;2023-05-07T07:53:30;4.00;;;2.55;;
55609;SDS011;41486;52.502;13.486;2023-05-07T07:55:59;2.72;;;1.92;;
55609;SDS011;41486;52.502;13.486;2023-05-07T07:58:32;2.75;;;1.95;;
55609;SDS011;41486;52.502;13.486;2023-05-07T08:01:02;3.53;;;2.17;;
55609;SDS011;41486;52.502;13.486;2023-05-07T08:03:32;3.22;;;2.20;;
55609;SDS011;41486;52.502;13.486;2023-05-07T08:06:01;3.25;;;1.92;;
55609;SDS011;41486;52.502;13.486;2023-05-07T08:08:30;2.58;;;2.38;;
55609;SDS011;41486;52.502;13.486;2023-05-07T08:10:58;1.75;;;1.60;;
55609;SDS011;41486;52.502;13.486;2023-05-07T08:13:30;2.25;;;1.90;;
55609;SDS011;41486;52.502;13.486;2023-05-07T08:15:59;3.30;;;2.13;;
55609;SDS011;41486;52.502;13.486;2023-05-07T08:18:27;2.33;;;1.73;;
55609;SDS011;41486;52.502;13.486;2023-05-07T08:21:00;3.25;;;1.90;;
55609;SDS011;41486;52.502;13.486;2023-05-07T08:23:29;3.30;;;1.80;;
55609;SDS011;41486;52.502;13.486;2023-05-07T08:25:58;5.43;;;1.92;;
55609;SDS011;41486;52.502;13.486;2023-05-07T08:28:30;2.70;;;1.95;;
55609;SDS011;41486;52.502;13.486;2023-05-07T08:30:57;2.10;;;1.83;;
55609;SDS011;41486;52.502;13.486;2023-05-07T08:33:31;2.22;;;1.67;;
55609;SDS011;41486;52.502;13.486;2023-05-07T08:36:00;2.60;;;1.80;;
55609;SDS011;41486;52.502;13.486;2023-05-07T08:38:29;3.35;;;1.70;;
55609;SDS011;41486;52.502;13.486;2023-05-07T08:40:57;2.72;;;1.90;;
55609;SDS011;41486;52.502;13.486;2023-05-07T08:43:26;2.40;;;2.10;;
55609;SDS011;41486;52.502;13.486;2023-05-07T08:45:54;2.22;;;1.90;;
55609;SDS011;41486;52.502;13.486;2023-05-07T08:48:27;2.38;;;1.70;;
55609;SDS011;41486;52.502;13.486;2023-05-07T08:51:06;2.85;;;1.77;;
55609;SDS011;41486;52.502;13.486;2023-05-07T08:53:34;3.20;;;2.30;;
55609;SDS011;41486;52.502;13.486;2023-05-07T08:56:03;11.20;;;2.03;;
55609;SDS011;41486;52.502;13.486;2023-05-07T08:58:34;2.58;;;1.70;;
55609;SDS011;41486;52.502;13.486;2023-05-07T09:01:05;2.25;;;1.38;;
55609;SDS011;41486;52.502;13.486;2023-05-07T09:03:37;2.42;;;1.67;;
55609;SDS011;41486;52.502;13.486;2023-05-07T09:06:07;2.22;;;1.67;;
55609;SDS011;41486;52.502;13.486;2023-05-07T09:08:35;4.97;;;1.77;;
55609;SDS011;41486;52.502;13.486;2023-05-07T09:11:05;3.33;;;1.85;;
55609;SDS011;41486;52.502;13.486;2023-05-07T09:13:33;4.00;;;2.10;;
55609;SDS011;41486;52.502;13.486;2023-05-07T09:16:12;2.17;;;1.58;;
55609;SDS011;41486;52.502;13.486;2023-05-07T09:18:43;3.58;;;1.80;;
55609;SDS011;41486;52.502;13.486;2023-05-07T09:21:16;2.28;;;1.70;;
55609;SDS011;41486;52.502;13.486;2023-05-07T09:23:47;3.00;;;1.95;;
55609;SDS011;41486;52.502;13.486;2023-05-07T09:26:15;2.67;;;1.83;;
55609;SDS011;41486;52.502;13.486;2023-05-07T09:28:44;1.83;;;1.45;;
55609;SDS011;41486;52.502;13.486;2023-05-07T09:31:13;3.80;;;1.67;;
55609;SDS011;41486;52.502;13.486;2023-05-07T09:33:42;1.90;;;1.73;;
55609;SDS011;41486;52.502;13.486;2023-05-07T09:36:12;1.65;;;1.20;;
55609;SDS011;41486;52.502;13.486;2023-05-07T09:38:42;3.10;;;1.75;;
55609;SDS011;41486;52.502;13.486;2023-05-07T09:41:11;2.55;;;1.45;;
55609;SDS011;41486;52.502;13.486;2023-05-07T09:43:56;2.78;;;1.48;;
55609;SDS011;41486;52.502;13.486;2023-05-07T09:46:32;2.15;;;1.75;;
55609;SDS011;41486;52.502;13.486;2023-05-07T09:49:09;1.92;;;1.27;;
55609;SDS011;41486;52.502;13.486;2023-05-07T09:51:47;2.50;;;1.27;;
55609;SDS011;41486;52.502;13.486;2023-05-07T09:54:18;1.55;;;1.40;;
55609;SDS011;41486;52.502;13.486;2023-05-07T09:56:50;1.98;;;1.10;;
55609;SDS011;41486;52.502;13.486;2023-05-07T09:59:22;0.95;;;0.82;;
55609;SDS011;41486;52.502;13.486;2023-05-07T10:01:51;3.55;;;1.55;;
55609;SDS011;41486;52.502;13.486;2023-05-07T10:04:21;2.47;;;1.33;;
55609;SDS011;41486;52.502;13.486;2023-05-07T10:06:51;1.00;;;0.90;;
55609;SDS011;41486;52.502;13.486;2023-05-07T10:09:21;8.55;;;1.65;;
55609;SDS011;41486;52.502;13.486;2023-05-07T10:11:49;1.63;;;1.20;;
55609;SDS011;41486;52.502;13.486;2023-05-07T10:14:19;2.17;;;1.10;;
55609;SDS011;41486;52.502;13.486;2023-05-07T10:16:51;1.88;;;0.80;;
55609;SDS011;41486;52.502;13.486;2023-05-07T10:19:21;0.70;;;0.70;;
55609;SDS011;41486;52.502;13.486;2023-05-07T10:24:31;1.00;;;0.85;;
55609;SDS011;41486;52.502;13.486;2023-05-07T10:27:02;1.60;;;1.20;;
55609;SDS011;41486;52.502;13.486;2023-05-07T10:29:37;1.27;;;1.02;;
55609;SDS011;41486;52.502;13.486;2023-05-07T10:32:14;3.10;;;1.08;;
55609;SDS011;41486;52.502;13.486;2023-05-07T10:34:57;1.25;;;1.00;;
55609;SDS011;41486;52.502;13.486;2023-05-07T10:37:29;1.67;;;1.30;;
55609;SDS011;41486;52.502;13.486;2023-05-07T10:39:59;3.15;;;1.75;;
55609;SDS011;41486;52.502;13.486;2023-05-07T10:42:30;1.80;;;1.35;;
55609;SDS011;41486;52.502;13.486;2023-05-07T10:45:10;1.60;;;0.98;;
55609;SDS011;41486;52.502;13.486;2023-05-07T10:50:45;2.00;;;1.02;;
55609;SDS011;41486;52.502;13.486;2023-05-07T10:53:20;2.45;;;0.80;;
55609;SDS011;41486;52.502;13.486;2023-05-07T10:56:26;1.20;;;0.90;;
55609;SDS011;41486;52.502;13.486;2023-05-07T11:06:10;2.75;;;1.00;;
55609;SDS011;41486;52.502;13.486;2023-05-07T11:08:53;1.90;;;1.00;;
55609;SDS011;41486;52.502;13.486;2023-05-07T11:34:00;3.72;;;1.20;;
55609;SDS011;41486;52.502;13.486;2023-05-07T11:36:30;2.65;;;1.05;;
55609;SDS011;41486;52.502;13.486;2023-05-07T11:39:02;2.40;;;1.10;;
55609;SDS011;41486;52.502;13.486;2023-05-07T11:41:33;1.58;;;1.08;;
55609;SDS011;41486;52.502;13.486;2023-05-07T11:44:03;3.85;;;1.13;;
55609;SDS011;41486;52.502;13.486;2023-05-07T11:46:32;1.23;;;1.08;;
55609;SDS011;41486;52.502;13.486;2023-05-07T11:49:01;1.27;;;0.80;;
55609;SDS011;41486;52.502;13.486;2023-05-07T11:51:29;1.10;;;0.80;;
55609;SDS011;41486;52.502;13.486;2023-05-07T11:53:57;1.40;;;1.20;;
55609;SDS011;41486;52.502;13.486;2023-05-07T11:56:26;3.33;;;1.05;;
55609;SDS011;41486;52.502;13.486;2023-05-07T11:58:54;1.35;;;0.80;;
55609;SDS011;41486;52.502;13.486;2023-05-07T12:01:21;2.15;;;1.08;;
55609;SDS011;41486;52.502;13.486;2023-05-07T12:03:51;1.52;;;0.82;;
55609;SDS011;41486;52.502;13.486;2023-05-07T12:06:20;3.22;;;1.20;;
55609;SDS011;41486;52.502;13.486;2023-05-07T12:08:48;2.28;;;0.82;;
55609;SDS011;41486;52.502;13.486;2023-05-07T12:11:21;2.22;;;0.90;;
55609;SDS011;41486;52.502;13.486;2023-05-07T12:13:51;2.63;;;1.25;;
55609;SDS011;41486;52.502;13.486;2023-05-07T12:16:24;1.55;;;0.90;;
55609;SDS011;41486;52.502;13.486;2023-05-07T12:18:54;1.35;;;0.93;;
55609;SDS011;41486;52.502;13.486;2023-05-07T12:21:25;1.55;;;1.13;;
55609;SDS011;41486;52.502;13.486;2023-05-07T12:23:53;3.10;;;1.10;;
55609;SDS011;41486;52.502;13.486;2023-05-07T12:26:21;2.47;;;0.95;;
55609;SDS011;41486;52.502;13.486;2023-05-07T12:28:50;1.58;;;1.00;;
55609;SDS011;41486;52.502;13.486;2023-05-07T12:31:18;1.90;;;0.75;;
55609;SDS011;41486;52.502;13.486;2023-05-07T12:33:46;1.02;;;0.90;;
55609;SDS011;41486;52.502;13.486;2023-05-07T12:36:16;0.70;;;0.70;;
55609;SDS011;41486;52.502;13.486;2023-05-07T12:38:44;1.52;;;0.98;;
55609;SDS011;41486;52.502;13.486;2023-05-07T12:41:12;1.05;;;0.90;;
55609;SDS011;41486;52.502;13.486;2023-05-07T12:43:41;2.00;;;1.00;;
55609;SDS011;41486;52.502;13.486;2023-05-07T12:46:12;1.63;;;1.00;;
55609;SDS011;41486;52.502;13.486;2023-05-07T12:48:43;0.80;;;0.80;;
55609;SDS011;41486;52.502;13.486;2023-05-07T12:51:13;1.00;;;0.82;;
55609;SDS011;41486;52.502;13.486;2023-05-07T12:53:43;1.08;;;0.82;;
55609;SDS011;41486;52.502;13.486;2023-05-07T12:56:11;0.85;;;0.80;;
55609;SDS011;41486;52.502;13.486;2023-05-07T12:58:39;1.30;;;0.80;;
55609;SDS011;41486;52.502;13.486;2023-05-07T13:01:07;1.20;;;0.90;;
55609;SDS011;41486;52.502;13.486;2023-05-07T13:03:37;3.05;;;0.73;;
55609;SDS011;41486;52.502;13.486;2023-05-07T13:06:06;0.77;;;0.77;;
55609;SDS011;41486;52.502;13.486;2023-05-07T13:08:37;1.00;;;0.80;;
55609;SDS011;41486;52.502;13.486;2023-05-07T13:11:08;1.17;;;0.93;;
55609;SDS011;41486;52.502;13.486;2023-05-07T13:13:38;1.83;;;1.13;;
55609;SDS011;41486;52.502;13.486;2023-05-07T13:16:07;1.27;;;0.98;;
55609;SDS011;41486;52.502;13.486;2023-05-07T13:18:37;1.33;;;0.80;;
55609;SDS011;41486;52.502;13.486;2023-05-07T13:21:06;5.22;;;0.90;;
55609;SDS011;41486;52.502;13.486;2023-05-07T13:23:35;2.80;;;0.90;;
55609;SDS011;41486;52.502;13.486;2023-05-07T13:26:04;1.23;;;1.00;;
55609;SDS011;41486;52.502;13.486;2023-05-07T13:28:52;1.27;;;1.00;;
55609;SDS011;41486;52.502;13.486;2023-05-07T13:31:21;1.52;;;0.80;;
55609;SDS011;41486;52.502;13.486;2023-05-07T13:33:49;1.45;;;1.00;;
55609;SDS011;41486;52.502;13.486;2023-05-07T13:36:17;1.88;;;1.13;;
55609;SDS011;41486;52.502;13.486;2023-05-07T13:38:45;1.38;;;0.68;;
55609;SDS011;41486;52.502;13.486;2023-05-07T13:41:13;1.38;;;0.80;;
55609;SDS011;41486;52.502;13.486;2023-05-07T13:43:41;1.58;;;1.48;;
55609;SDS011;41486;52.502;13.486;2023-05-07T13:46:10;1.52;;;0.80;;
55609;SDS011;41486;52.502;13.486;2023-05-07T13:48:38;0.70;;;0.70;;
55609;SDS011;41486;52.502;13.486;2023-05-07T13:51:06;0.90;;;0.90;;
55609;SDS011;41486;52.502;13.486;2023-05-07T13:53:34;4.15;;;2.67;;
55609;SDS011;41486;52.502;13.486;2023-05-07T13:56:02;1.77;;;1.08;;
55609;SDS011;41486;52.502;13.486;2023-05-07T13:58:31;1.83;;;1.35;;
55609;SDS011;41486;52.502;13.486;2023-05-07T14:00:59;1.58;;;0.90;;
55609;SDS011;41486;52.502;13.486;2023-05-07T14:03:28;1.50;;;0.70;;
55609;SDS011;41486;52.502;13.486;2023-05-07T14:05:58;2.40;;;1.20;;
55609;SDS011;41486;52.502;13.486;2023-05-07T14:08:27;1.27;;;0.93;;
55609;SDS011;41486;52.502;13.486;2023-05-07T14:10:57;2.13;;;0.90;;
55609;SDS011;41486;52.502;13.486;2023-05-07T14:13:26;1.10;;;0.88;;
55609;SDS011;41486;52.502;13.486;2023-05-07T14:15:56;1.30;;;0.70;;
55609;SDS011;41486;52.502;13.486;2023-05-07T14:18:24;1.08;;;0.70;;
55609;SDS011;41486;52.502;13.486;2023-05-07T14:20:54;1.60;;;0.63;;
55609;SDS011;41486;52.502;13.486;2023-05-07T14:23:22;3.20;;;0.90;;
55609;SDS011;41486;52.502;13.486;2023-05-07T14:25:52;1.65;;;0.80;;
55609;SDS011;41486;52.502;13.486;2023-05-07T14:28:21;1.10;;;1.00;;
55609;SDS011;41486;52.502;13.486;2023-05-07T14:30:49;1.27;;;0.80;;
55609;SDS011;41486;52.502;13.486;2023-05-07T14:33:17;1.48;;;0.93;;
55609;SDS011;41486;52.502;13.486;2023-05-07T14:35:45;0.90;;;0.68;;
55609;SDS011;41486;52.502;13.486;2023-05-07T14:38:16;1.95;;;0.80;;
55609;SDS011;41486;52.502;13.486;2023-05-07T14:40:44;0.70;;;0.65;;
55609;SDS011;41486;52.502;13.486;2023-05-07T14:43:12;1.77;;;1.02;;
55609;SDS011;41486;52.502;13.486;2023-05-07T14:45:40;0.80;;;0.80;;
55609;SDS011;41486;52.502;13.486;2023-05-07T14:48:08;0.90;;;0.75;;
55609;SDS011;41486;52.502;13.486;2023-05-07T14:50:41;1.90;;;1.48;;
55609;SDS011;41486;52.502;13.486;2023-05-07T14:53:09;3.20;;;1.95;;
55609;SDS011;41486;52.502;13.486;2023-05-07T14:55:38;1.08;;;0.70;;
55609;SDS011;41486;52.502;13.486;2023-05-07T14:58:07;1.25;;;1.15;;
55609;SDS011;41486;52.502;13.486;2023-05-07T15:00:35;1.38;;;0.70;;
55609;SDS011;41486;52.502;13.486;2023-05-07T15:03:04;1.27;;;0.90;;
55609;SDS011;41486;52.502;13.486;2023-05-07T15:05:34;0.93;;;0.82;;
55609;SDS011;41486;52.502;13.486;2023-05-07T15:08:03;1.10;;;0.80;;
55609;SDS011;41486;52.502;13.486;2023-05-07T15:10:33;1.88;;;0.98;;
55609;SDS011;41486;52.502;13.486;2023-05-07T15:13:08;0.65;;;0.60;;
55609;SDS011;41486;52.502;13.486;2023-05-07T15:15:41;1.90;;;0.80;;
55609;SDS011;41486;52.502;13.486;2023-05-07T15:18:11;1.13;;;1.00;;
55609;SDS011;41486;52.502;13.486;2023-05-07T15:20:39;0.70;;;0.70;;
55609;SDS011;41486;52.502;13.486;2023-05-07T15:23:08;4.47;;;0.80;;